GWILZ YPPH-YAYE
Flight info
| Callsign | GWILZ |
|---|---|
| Flight time | 1h 58m |
| Altitude | 45000 |
| Route | AMANA DCT 31S19 DCT LEMIR DCT LRID DCT LRAN DCT 27S28 DCT SAROK DCT 26S30 DCT STPK DCT AY2WD |
| Aircraft | C750/M-SBDE3FGHRWXY/S |
Departure
| Time | 2026-04-28 17:20 |
|---|---|
| Airport | Perth International Airport (YPPH) |
Arrival
| Time | 2026-04-28 19:18 |
|---|---|
| Airport | Ayers Rock Connellan Airport (YAYE) |
| Time | Latitude | Longitude | Altitude | Speed | Heading |
|---|---|---|---|---|---|
| 2026-04-28 16:17 | -31.92894 | 115.95734 | 40 ft | 0 kts | 225° |
| 2026-04-28 17:05 | -31.92890 | 115.95739 | 40 ft | 2 kts | 223° |
| 2026-04-28 17:06 | -31.92863 | 115.95759 | 39 ft | 2 kts | 163° |
| 2026-04-28 17:06 | -31.92851 | 115.95747 | 38 ft | 2 kts | 135° |
| 2026-04-28 17:06 | -31.92849 | 115.95746 | 38 ft | 0 kts | 134° |
| 2026-04-28 17:08 | -31.92853 | 115.95750 | 38 ft | 2 kts | 135° |
| 2026-04-28 17:08 | -31.92882 | 115.95780 | 39 ft | 9 kts | 143° |
| 2026-04-28 17:08 | -31.92942 | 115.95842 | 41 ft | 14 kts | 135° |
| 2026-04-28 17:08 | -31.93015 | 115.95926 | 43 ft | 14 kts | 135° |
| 2026-04-28 17:09 | -31.93055 | 115.96000 | 45 ft | 6 kts | 113° |
| 2026-04-28 17:09 | -31.93084 | 115.96039 | 47 ft | 6 kts | 137° |
| 2026-04-28 17:09 | -31.93113 | 115.96077 | 48 ft | 7 kts | 128° |
| 2026-04-28 17:09 | -31.93146 | 115.96141 | 48 ft | 11 kts | 108° |
| 2026-04-28 17:10 | -31.93168 | 115.96205 | 50 ft | 14 kts | 124° |
| 2026-04-28 17:10 | -31.93237 | 115.96316 | 52 ft | 13 kts | 130° |
| 2026-04-28 17:10 | -31.93311 | 115.96323 | 52 ft | 10 kts | 188° |
| 2026-04-28 17:10 | -31.93378 | 115.96307 | 52 ft | 9 kts | 195° |
| 2026-04-28 17:11 | -31.93427 | 115.96283 | 53 ft | 7 kts | 201° |
| 2026-04-28 17:11 | -31.93468 | 115.96263 | 53 ft | 6 kts | 209° |
| 2026-04-28 17:11 | -31.93509 | 115.96234 | 55 ft | 9 kts | 210° |
| 2026-04-28 17:11 | -31.93578 | 115.96196 | 55 ft | 14 kts | 202° |
| 2026-04-28 17:12 | -31.93680 | 115.96177 | 57 ft | 15 kts | 179° |
| 2026-04-28 17:12 | -31.93769 | 115.96176 | 60 ft | 10 kts | 211° |
| 2026-04-28 17:12 | -31.93808 | 115.96112 | 57 ft | 10 kts | 239° |
| 2026-04-28 17:12 | -31.93846 | 115.96037 | 58 ft | 12 kts | 238° |
| 2026-04-28 17:13 | -31.93892 | 115.95945 | 57 ft | 14 kts | 239° |
| 2026-04-28 17:13 | -31.93963 | 115.95860 | 56 ft | 15 kts | 187° |
| 2026-04-28 17:13 | -31.94058 | 115.95909 | 58 ft | 16 kts | 149° |
| 2026-04-28 17:13 | -31.94161 | 115.95981 | 58 ft | 18 kts | 149° |
| 2026-04-28 17:14 | -31.94266 | 115.96057 | 61 ft | 17 kts | 148° |
| 2026-04-28 17:14 | -31.94367 | 115.96129 | 56 ft | 17 kts | 149° |
| 2026-04-28 17:14 | -31.94478 | 115.96138 | 56 ft | 17 kts | 194° |
| 2026-04-28 17:14 | -31.94586 | 115.96106 | 63 ft | 15 kts | 194° |
| 2026-04-28 17:15 | -31.94678 | 115.96080 | 64 ft | 13 kts | 193° |
| 2026-04-28 17:15 | -31.94765 | 115.96055 | 64 ft | 13 kts | 194° |
| 2026-04-28 17:15 | -31.94852 | 115.96029 | 66 ft | 13 kts | 194° |
| 2026-04-28 17:15 | -31.94934 | 115.96002 | 67 ft | 12 kts | 196° |
| 2026-04-28 17:16 | -31.95011 | 115.95982 | 63 ft | 11 kts | 193° |
| 2026-04-28 17:16 | -31.95086 | 115.95960 | 68 ft | 11 kts | 194° |
| 2026-04-28 17:16 | -31.95164 | 115.95938 | 68 ft | 12 kts | 193° |
| 2026-04-28 17:16 | -31.95250 | 115.95914 | 66 ft | 14 kts | 193° |
| 2026-04-28 17:17 | -31.95359 | 115.95880 | 65 ft | 18 kts | 192° |
| 2026-04-28 17:17 | -31.95503 | 115.95839 | 61 ft | 23 kts | 193° |
| 2026-04-28 17:17 | -31.95647 | 115.95798 | 64 ft | 20 kts | 194° |
| 2026-04-28 17:17 | -31.95778 | 115.95764 | 69 ft | 18 kts | 175° |
| 2026-04-28 17:18 | -31.95835 | 115.95854 | 66 ft | 13 kts | 107° |
| 2026-04-28 17:18 | -31.95837 | 115.95947 | 71 ft | 11 kts | 67° |
| 2026-04-28 17:18 | -31.95783 | 115.95997 | 70 ft | 9 kts | 15° |
| 2026-04-28 17:18 | -31.95759 | 115.96004 | 70 ft | 3 kts | 13° |
| 2026-04-28 17:19 | -31.95738 | 115.96010 | 69 ft | 5 kts | 13° |
| 2026-04-28 17:19 | -31.95636 | 115.96039 | 69 ft | 44 kts | 14° |
| 2026-04-28 17:19 | -31.94998 | 115.96224 | 65 ft | 137 kts | 13° |
| 2026-04-28 17:19 | -31.94009 | 115.96518 | 382 ft | 149 kts | 14° |
| 2026-04-28 17:20 | -31.92983 | 115.96829 | 915 ft | 158 kts | 14° |
| 2026-04-28 17:20 | -31.92247 | 115.97050 | 1165 ft | 170 kts | 13° |
| 2026-04-28 17:20 | -31.90711 | 115.97470 | 2038 ft | 176 kts | 13° |
| 2026-04-28 17:20 | -31.89430 | 115.97842 | 2365 ft | 203 kts | 14° |
| 2026-04-28 17:21 | -31.87969 | 115.98315 | 2798 ft | 226 kts | 19° |
| 2026-04-28 17:21 | -31.86775 | 115.99475 | 3643 ft | 230 kts | 55° |
| 2026-04-28 17:21 | -31.86248 | 116.01343 | 3951 ft | 257 kts | 83° |
| 2026-04-28 17:22 | -31.86079 | 116.05694 | 5551 ft | 269 kts | 87° |
| 2026-04-28 17:22 | -31.85923 | 116.07914 | 6338 ft | 275 kts | 85° |
| 2026-04-28 17:22 | -31.85754 | 116.10165 | 7161 ft | 278 kts | 85° |
| 2026-04-28 17:23 | -31.85184 | 116.14726 | 8894 ft | 286 kts | 77° |
| 2026-04-28 17:23 | -31.84731 | 116.17015 | 9749 ft | 289 kts | 77° |
| 2026-04-28 17:23 | -31.84287 | 116.19349 | 10342 ft | 299 kts | 78° |
| 2026-04-28 17:23 | -31.83811 | 116.21839 | 10421 ft | 326 kts | 77° |
| 2026-04-28 17:24 | -31.83290 | 116.24508 | 10451 ft | 350 kts | 77° |
| 2026-04-28 17:24 | -31.82738 | 116.27325 | 10965 ft | 354 kts | 77° |
| 2026-04-28 17:24 | -31.82188 | 116.30153 | 11600 ft | 356 kts | 77° |
| 2026-04-28 17:24 | -31.81635 | 116.33006 | 12145 ft | 360 kts | 77° |
| 2026-04-28 17:25 | -31.81073 | 116.35887 | 12708 ft | 363 kts | 77° |
| 2026-04-28 17:25 | -31.79930 | 116.41724 | 13780 ft | 369 kts | 77° |
| 2026-04-28 17:25 | -31.79546 | 116.43684 | 14122 ft | 371 kts | 77° |
| 2026-04-28 17:26 | -31.78965 | 116.46648 | 14634 ft | 374 kts | 77° |
| 2026-04-28 17:26 | -31.78379 | 116.49632 | 15123 ft | 377 kts | 77° |
| 2026-04-28 17:26 | -31.77787 | 116.52643 | 15622 ft | 379 kts | 77° |
| 2026-04-28 17:26 | -31.77189 | 116.55679 | 16121 ft | 382 kts | 77° |
| 2026-04-28 17:27 | -31.76587 | 116.58733 | 16622 ft | 385 kts | 77° |
| 2026-04-28 17:27 | -31.75979 | 116.61811 | 17126 ft | 388 kts | 77° |
| 2026-04-28 17:27 | -31.75181 | 116.64857 | 17542 ft | 391 kts | 70° |
| 2026-04-28 17:27 | -31.74228 | 116.67857 | 18083 ft | 393 kts | 70° |
| 2026-04-28 17:28 | -31.73296 | 116.70845 | 18580 ft | 396 kts | 70° |
| 2026-04-28 17:28 | -31.71424 | 116.76984 | 19595 ft | 402 kts | 70° |
| 2026-04-28 17:28 | -31.70458 | 116.80083 | 20109 ft | 406 kts | 70° |
| 2026-04-28 17:29 | -31.69485 | 116.83207 | 20627 ft | 409 kts | 70° |
| 2026-04-28 17:29 | -31.68511 | 116.86358 | 21127 ft | 412 kts | 70° |
| 2026-04-28 17:29 | -31.67528 | 116.89538 | 21621 ft | 415 kts | 70° |
| 2026-04-28 17:30 | -31.65533 | 116.95952 | 22582 ft | 421 kts | 70° |
| 2026-04-28 17:30 | -31.63509 | 117.02455 | 23502 ft | 427 kts | 70° |
| 2026-04-28 17:30 | -31.62487 | 117.05732 | 23945 ft | 430 kts | 70° |
| 2026-04-28 17:31 | -31.61454 | 117.09041 | 24381 ft | 433 kts | 70° |
| 2026-04-28 17:31 | -31.59366 | 117.15716 | 25221 ft | 438 kts | 70° |
| 2026-04-28 17:32 | -31.57249 | 117.22474 | 26032 ft | 444 kts | 70° |
| 2026-04-28 17:32 | -31.56194 | 117.25835 | 26424 ft | 447 kts | 70° |
| 2026-04-28 17:32 | -31.55117 | 117.29266 | 26812 ft | 449 kts | 70° |
| 2026-04-28 17:32 | -31.54032 | 117.32714 | 27197 ft | 452 kts | 70° |
| 2026-04-28 17:33 | -31.52940 | 117.36183 | 27574 ft | 455 kts | 70° |
| 2026-04-28 17:33 | -31.51842 | 117.39666 | 27945 ft | 457 kts | 70° |
| 2026-04-28 17:33 | -31.50735 | 117.43174 | 28311 ft | 460 kts | 70° |
| 2026-04-28 17:33 | -31.49984 | 117.45554 | 28550 ft | 462 kts | 70° |
| 2026-04-28 17:34 | -31.48502 | 117.50238 | 28995 ft | 465 kts | 70° |
| 2026-04-28 17:34 | -31.47376 | 117.53795 | 29312 ft | 467 kts | 70° |
| 2026-04-28 17:34 | -31.46242 | 117.57375 | 29612 ft | 469 kts | 70° |
| 2026-04-28 17:34 | -31.45102 | 117.60967 | 29892 ft | 472 kts | 70° |
| 2026-04-28 17:35 | -31.43956 | 117.64575 | 30154 ft | 474 kts | 70° |
| 2026-04-28 17:35 | -31.42803 | 117.68199 | 30400 ft | 475 kts | 70° |
| 2026-04-28 17:35 | -31.41647 | 117.71830 | 30625 ft | 477 kts | 70° |
| 2026-04-28 17:35 | -31.40486 | 117.75475 | 30839 ft | 479 kts | 70° |
| 2026-04-28 17:36 | -31.39320 | 117.79127 | 31110 ft | 478 kts | 70° |
| 2026-04-28 17:36 | -31.38156 | 117.82771 | 31368 ft | 476 kts | 70° |
| 2026-04-28 17:36 | -31.36996 | 117.86397 | 31584 ft | 476 kts | 70° |
| 2026-04-28 17:36 | -31.35850 | 117.89977 | 31794 ft | 476 kts | 70° |
| 2026-04-28 17:37 | -31.34689 | 117.93598 | 32003 ft | 475 kts | 69° |
| 2026-04-28 17:37 | -31.33528 | 117.97217 | 32213 ft | 475 kts | 69° |
| 2026-04-28 17:37 | -31.32368 | 118.00826 | 32420 ft | 474 kts | 69° |
| 2026-04-28 17:37 | -31.31207 | 118.04438 | 32637 ft | 474 kts | 69° |
| 2026-04-28 17:38 | -31.30046 | 118.08043 | 32870 ft | 474 kts | 69° |
| 2026-04-28 17:38 | -31.28885 | 118.11644 | 33116 ft | 473 kts | 69° |
| 2026-04-28 17:38 | -31.27726 | 118.15238 | 33363 ft | 473 kts | 69° |
| 2026-04-28 17:38 | -31.26564 | 118.18833 | 33625 ft | 472 kts | 69° |
| 2026-04-28 17:39 | -31.25403 | 118.22423 | 33893 ft | 471 kts | 69° |
| 2026-04-28 17:39 | -31.24245 | 118.26000 | 34173 ft | 471 kts | 69° |
| 2026-04-28 17:39 | -31.21926 | 118.33152 | 34764 ft | 470 kts | 69° |
| 2026-04-28 17:40 | -31.20768 | 118.36717 | 35076 ft | 469 kts | 69° |
| 2026-04-28 17:40 | -31.19607 | 118.40286 | 35396 ft | 468 kts | 69° |
| 2026-04-28 17:40 | -31.18448 | 118.43845 | 35717 ft | 468 kts | 69° |
| 2026-04-28 17:40 | -31.17305 | 118.47354 | 36030 ft | 467 kts | 69° |
| 2026-04-28 17:41 | -31.16150 | 118.50894 | 36352 ft | 467 kts | 69° |
| 2026-04-28 17:41 | -31.14992 | 118.54440 | 36666 ft | 467 kts | 69° |
| 2026-04-28 17:41 | -31.13833 | 118.57984 | 36994 ft | 467 kts | 69° |
| 2026-04-28 17:41 | -31.12671 | 118.61534 | 37372 ft | 467 kts | 69° |
| 2026-04-28 17:42 | -31.11512 | 118.65071 | 37756 ft | 467 kts | 69° |
| 2026-04-28 17:42 | -31.10742 | 118.67418 | 38019 ft | 467 kts | 69° |
| 2026-04-28 17:42 | -31.09189 | 118.72148 | 38533 ft | 467 kts | 69° |
| 2026-04-28 17:42 | -31.08041 | 118.75641 | 38906 ft | 467 kts | 69° |
| 2026-04-28 17:43 | -31.06864 | 118.79219 | 39293 ft | 467 kts | 69° |
| 2026-04-28 17:43 | -31.05712 | 118.82714 | 39657 ft | 467 kts | 69° |
| 2026-04-28 17:43 | -31.04549 | 118.86240 | 40028 ft | 467 kts | 69° |
| 2026-04-28 17:43 | -31.03382 | 118.89775 | 40395 ft | 467 kts | 69° |
| 2026-04-28 17:44 | -31.02216 | 118.93306 | 40749 ft | 467 kts | 69° |
| 2026-04-28 17:44 | -31.01049 | 118.96833 | 41101 ft | 467 kts | 69° |
| 2026-04-28 17:44 | -30.99842 | 119.00350 | 41429 ft | 467 kts | 65° |
| 2026-04-28 17:44 | -30.98377 | 119.03730 | 41739 ft | 467 kts | 62° |
| 2026-04-28 17:45 | -30.96811 | 119.07050 | 42089 ft | 467 kts | 61° |
| 2026-04-28 17:45 | -30.95262 | 119.10379 | 42406 ft | 467 kts | 62° |
| 2026-04-28 17:45 | -30.93773 | 119.13734 | 42715 ft | 467 kts | 63° |
| 2026-04-28 17:45 | -30.92278 | 119.17095 | 43010 ft | 467 kts | 62° |
| 2026-04-28 17:46 | -30.90750 | 119.20426 | 43302 ft | 467 kts | 62° |
| 2026-04-28 17:46 | -30.89212 | 119.23761 | 43588 ft | 467 kts | 62° |
| 2026-04-28 17:46 | -30.87698 | 119.27102 | 43864 ft | 467 kts | 62° |
| 2026-04-28 17:46 | -30.86186 | 119.30452 | 44132 ft | 467 kts | 62° |
| 2026-04-28 17:47 | -30.84664 | 119.33788 | 44397 ft | 467 kts | 62° |
| 2026-04-28 17:47 | -30.83136 | 119.37118 | 44649 ft | 467 kts | 62° |
| 2026-04-28 17:47 | -30.81611 | 119.40457 | 44894 ft | 465 kts | 62° |
| 2026-04-28 17:47 | -30.80607 | 119.42659 | 45016 ft | 466 kts | 62° |
| 2026-04-28 17:48 | -30.78554 | 119.47155 | 44993 ft | 475 kts | 62° |
| 2026-04-28 17:48 | -30.75413 | 119.54004 | 45010 ft | 486 kts | 62° |
| 2026-04-28 17:49 | -30.72198 | 119.61013 | 45014 ft | 496 kts | 62° |
| 2026-04-28 17:49 | -30.68914 | 119.68152 | 45015 ft | 505 kts | 62° |
| 2026-04-28 17:50 | -30.65571 | 119.75414 | 45013 ft | 512 kts | 62° |
| 2026-04-28 17:50 | -30.62186 | 119.82745 | 45008 ft | 518 kts | 62° |
| 2026-04-28 17:51 | -30.58765 | 119.90144 | 45003 ft | 522 kts | 62° |
| 2026-04-28 17:51 | -30.55345 | 119.97527 | 45011 ft | 524 kts | 62° |
| 2026-04-28 17:52 | -30.51877 | 120.04997 | 45010 ft | 527 kts | 62° |
| 2026-04-28 17:52 | -30.46646 | 120.16239 | 45009 ft | 529 kts | 62° |
| 2026-04-28 17:53 | -30.43145 | 120.23745 | 45003 ft | 530 kts | 62° |
| 2026-04-28 17:53 | -30.39658 | 120.31206 | 45009 ft | 530 kts | 62° |
| 2026-04-28 17:54 | -30.36142 | 120.38713 | 45007 ft | 531 kts | 62° |
| 2026-04-28 17:54 | -30.32620 | 120.46219 | 45009 ft | 531 kts | 62° |
| 2026-04-28 17:55 | -30.29084 | 120.53742 | 45005 ft | 531 kts | 62° |
| 2026-04-28 17:55 | -30.25543 | 120.61259 | 45003 ft | 531 kts | 61° |
| 2026-04-28 17:56 | -30.22007 | 120.68754 | 45003 ft | 531 kts | 61° |
| 2026-04-28 17:56 | -30.18458 | 120.76260 | 45006 ft | 532 kts | 61° |
| 2026-04-28 17:57 | -30.14908 | 120.83752 | 45002 ft | 532 kts | 61° |
| 2026-04-28 17:57 | -30.11372 | 120.91202 | 45008 ft | 532 kts | 61° |
| 2026-04-28 17:58 | -30.07811 | 120.98691 | 45010 ft | 532 kts | 61° |
| 2026-04-28 17:58 | -30.04441 | 121.06284 | 45000 ft | 531 kts | 65° |
| 2026-04-28 17:59 | -30.01452 | 121.14076 | 45001 ft | 531 kts | 66° |
| 2026-04-28 17:59 | -29.98345 | 121.21822 | 45006 ft | 531 kts | 65° |
| 2026-04-28 18:00 | -29.95306 | 121.29581 | 45009 ft | 531 kts | 66° |
| 2026-04-28 18:00 | -29.92218 | 121.37333 | 45002 ft | 531 kts | 65° |
| 2026-04-28 18:01 | -29.89145 | 121.45087 | 45003 ft | 531 kts | 65° |
| 2026-04-28 18:01 | -29.86079 | 121.52788 | 45006 ft | 531 kts | 65° |
| 2026-04-28 18:02 | -29.82993 | 121.60524 | 45007 ft | 532 kts | 65° |
| 2026-04-28 18:02 | -29.79903 | 121.68260 | 45010 ft | 532 kts | 65° |
| 2026-04-28 18:03 | -29.76806 | 121.75992 | 45010 ft | 532 kts | 65° |
| 2026-04-28 18:03 | -29.73707 | 121.83716 | 45005 ft | 532 kts | 65° |
| 2026-04-28 18:04 | -29.70600 | 121.91441 | 45008 ft | 532 kts | 65° |
| 2026-04-28 18:04 | -29.67488 | 121.99165 | 45009 ft | 532 kts | 65° |
| 2026-04-28 18:05 | -29.64901 | 122.05574 | 45005 ft | 532 kts | 65° |
| 2026-04-28 18:05 | -29.61274 | 122.14541 | 45004 ft | 532 kts | 65° |
| 2026-04-28 18:06 | -29.58152 | 122.22242 | 45003 ft | 532 kts | 65° |
| 2026-04-28 18:06 | -29.55021 | 122.29942 | 45004 ft | 532 kts | 65° |
| 2026-04-28 18:07 | -29.51717 | 122.37525 | 45000 ft | 531 kts | 64° |
| 2026-04-28 18:07 | -29.48425 | 122.45132 | 45004 ft | 531 kts | 63° |
| 2026-04-28 18:08 | -29.45100 | 122.52718 | 45007 ft | 531 kts | 63° |
| 2026-04-28 18:08 | -29.41793 | 122.60306 | 45005 ft | 532 kts | 63° |
| 2026-04-28 18:09 | -29.38470 | 122.67876 | 45005 ft | 532 kts | 63° |
| 2026-04-28 18:09 | -29.35150 | 122.75452 | 45009 ft | 532 kts | 63° |
| 2026-04-28 18:10 | -29.31822 | 122.83014 | 45008 ft | 532 kts | 63° |
| 2026-04-28 18:10 | -29.28509 | 122.90537 | 45007 ft | 532 kts | 63° |
| 2026-04-28 18:11 | -29.25714 | 122.96868 | 45006 ft | 532 kts | 63° |
| 2026-04-28 18:11 | -29.21830 | 123.05650 | 45009 ft | 532 kts | 63° |
| 2026-04-28 18:12 | -29.18482 | 123.13204 | 45005 ft | 532 kts | 63° |
| 2026-04-28 18:12 | -29.15132 | 123.20749 | 45004 ft | 532 kts | 63° |
| 2026-04-28 18:13 | -29.11776 | 123.28295 | 45004 ft | 532 kts | 63° |
| 2026-04-28 18:13 | -29.08982 | 123.34564 | 45005 ft | 532 kts | 63° |
| 2026-04-28 18:14 | -29.05623 | 123.42089 | 45006 ft | 532 kts | 63° |
| 2026-04-28 18:14 | -29.02252 | 123.49626 | 45003 ft | 532 kts | 63° |
| 2026-04-28 18:15 | -28.98879 | 123.57153 | 45001 ft | 532 kts | 63° |
| 2026-04-28 18:15 | -28.95502 | 123.64676 | 45005 ft | 532 kts | 63° |
| 2026-04-28 18:16 | -28.92124 | 123.72185 | 45002 ft | 532 kts | 63° |
| 2026-04-28 18:16 | -28.88741 | 123.79692 | 45007 ft | 532 kts | 63° |
| 2026-04-28 18:17 | -28.85356 | 123.87190 | 45008 ft | 532 kts | 63° |
| 2026-04-28 18:17 | -28.81957 | 123.94703 | 45008 ft | 532 kts | 63° |
| 2026-04-28 18:18 | -28.78585 | 124.02145 | 45008 ft | 532 kts | 63° |
| 2026-04-28 18:18 | -28.75736 | 124.08419 | 45008 ft | 532 kts | 63° |
| 2026-04-28 18:19 | -28.71777 | 124.17123 | 45010 ft | 532 kts | 63° |
| 2026-04-28 18:19 | -28.68369 | 124.24602 | 45009 ft | 532 kts | 63° |
| 2026-04-28 18:20 | -28.65056 | 124.32123 | 44997 ft | 531 kts | 64° |
| 2026-04-28 18:20 | -28.61794 | 124.39680 | 45003 ft | 532 kts | 64° |
| 2026-04-28 18:21 | -28.58549 | 124.47253 | 45004 ft | 532 kts | 64° |
| 2026-04-28 18:21 | -28.55311 | 124.54762 | 45003 ft | 532 kts | 64° |
| 2026-04-28 18:22 | -28.52052 | 124.62316 | 45003 ft | 532 kts | 64° |
| 2026-04-28 18:22 | -28.48794 | 124.69857 | 45006 ft | 532 kts | 64° |
| 2026-04-28 18:23 | -28.45525 | 124.77401 | 45006 ft | 532 kts | 64° |
| 2026-04-28 18:23 | -28.42255 | 124.84939 | 45001 ft | 532 kts | 64° |
| 2026-04-28 18:24 | -28.40618 | 124.88706 | 44357 ft | 532 kts | 61° |
| 2026-04-28 18:24 | -28.39531 | 124.91206 | 44452 ft | 532 kts | 61° |
| 2026-04-28 18:24 | -28.37335 | 124.96250 | 44640 ft | 532 kts | 61° |
| 2026-04-28 18:24 | -28.35696 | 125.00010 | 44770 ft | 531 kts | 61° |
| 2026-04-28 18:25 | -28.34055 | 125.03773 | 44886 ft | 531 kts | 61° |
| 2026-04-28 18:25 | -28.32416 | 125.07529 | 44999 ft | 531 kts | 61° |
| 2026-04-28 18:26 | -28.27477 | 125.18817 | 45074 ft | 535 kts | 61° |
| 2026-04-28 18:26 | -28.24175 | 125.26351 | 45084 ft | 538 kts | 61° |
| 2026-04-28 18:27 | -28.20831 | 125.33964 | 45094 ft | 540 kts | 61° |
| 2026-04-28 18:27 | -28.17476 | 125.41588 | 45093 ft | 541 kts | 61° |
| 2026-04-28 18:28 | -28.14104 | 125.49234 | 45092 ft | 542 kts | 61° |
| 2026-04-28 18:28 | -28.10725 | 125.56885 | 45089 ft | 543 kts | 61° |
| 2026-04-28 18:29 | -28.07336 | 125.64542 | 45092 ft | 544 kts | 61° |
| 2026-04-28 18:29 | -28.03944 | 125.72191 | 45089 ft | 544 kts | 61° |
| 2026-04-28 18:30 | -28.00562 | 125.79804 | 45087 ft | 544 kts | 61° |
| 2026-04-28 18:30 | -27.97155 | 125.87458 | 45092 ft | 545 kts | 61° |
| 2026-04-28 18:31 | -27.93743 | 125.95111 | 45089 ft | 545 kts | 61° |
| 2026-04-28 18:31 | -27.90325 | 126.02763 | 45091 ft | 545 kts | 61° |
| 2026-04-28 18:32 | -27.86901 | 126.10412 | 45084 ft | 545 kts | 61° |
| 2026-04-28 18:32 | -27.83472 | 126.18060 | 45082 ft | 545 kts | 61° |
| 2026-04-28 18:33 | -27.80038 | 126.25704 | 45223 ft | 545 kts | 58° |
| 2026-04-28 18:33 | -27.78319 | 126.29527 | 45112 ft | 547 kts | 58° |
| 2026-04-28 18:33 | -27.76589 | 126.33363 | 45085 ft | 547 kts | 58° |
| 2026-04-28 18:34 | -27.73138 | 126.41019 | 45089 ft | 547 kts | 58° |
| 2026-04-28 18:34 | -27.69684 | 126.48664 | 45091 ft | 546 kts | 58° |
| 2026-04-28 18:35 | -27.66231 | 126.56294 | 45090 ft | 546 kts | 58° |
| 2026-04-28 18:35 | -27.62774 | 126.63918 | 45086 ft | 545 kts | 58° |
| 2026-04-28 18:36 | -27.59317 | 126.71526 | 45083 ft | 545 kts | 58° |
| 2026-04-28 18:36 | -27.55876 | 126.79088 | 45086 ft | 545 kts | 58° |
| 2026-04-28 18:37 | -27.52414 | 126.86682 | 45082 ft | 545 kts | 58° |
| 2026-04-28 18:37 | -27.48948 | 126.94269 | 45086 ft | 544 kts | 58° |
| 2026-04-28 18:38 | -27.45482 | 127.01845 | 45084 ft | 544 kts | 58° |
| 2026-04-28 18:38 | -27.42007 | 127.09426 | 45086 ft | 544 kts | 58° |
| 2026-04-28 18:39 | -27.38530 | 127.16997 | 45078 ft | 544 kts | 58° |
| 2026-04-28 18:39 | -27.35074 | 127.24508 | 45085 ft | 544 kts | 58° |
| 2026-04-28 18:40 | -27.31586 | 127.32077 | 45085 ft | 544 kts | 59° |
| 2026-04-28 18:40 | -27.28094 | 127.39640 | 45086 ft | 544 kts | 59° |
| 2026-04-28 18:41 | -27.24596 | 127.47202 | 45083 ft | 545 kts | 59° |
| 2026-04-28 18:41 | -27.21097 | 127.54754 | 45083 ft | 545 kts | 59° |
| 2026-04-28 18:42 | -27.17594 | 127.62299 | 45082 ft | 545 kts | 59° |
| 2026-04-28 18:42 | -27.14087 | 127.69841 | 45078 ft | 545 kts | 59° |
| 2026-04-28 18:43 | -27.10597 | 127.77332 | 45084 ft | 545 kts | 59° |
| 2026-04-28 18:43 | -27.07082 | 127.84864 | 45082 ft | 545 kts | 59° |
| 2026-04-28 18:44 | -27.03558 | 127.92403 | 45087 ft | 545 kts | 58° |
| 2026-04-28 18:44 | -26.98069 | 128.03544 | 45092 ft | 542 kts | 54° |
| 2026-04-28 18:45 | -26.94014 | 128.10667 | 45094 ft | 542 kts | 54° |
| 2026-04-28 18:45 | -26.90032 | 128.17879 | 45098 ft | 543 kts | 54° |
| 2026-04-28 18:46 | -26.86001 | 128.25019 | 45099 ft | 543 kts | 53° |
| 2026-04-28 18:46 | -26.82017 | 128.32150 | 45092 ft | 543 kts | 54° |
| 2026-04-28 18:47 | -26.77991 | 128.39301 | 45090 ft | 543 kts | 53° |
| 2026-04-28 18:47 | -26.73960 | 128.46466 | 45094 ft | 544 kts | 54° |
| 2026-04-28 18:48 | -26.69926 | 128.53622 | 45088 ft | 544 kts | 53° |
| 2026-04-28 18:48 | -26.65878 | 128.60788 | 45089 ft | 545 kts | 54° |
| 2026-04-28 18:49 | -26.63170 | 128.65581 | 45089 ft | 545 kts | 53° |
| 2026-04-28 18:49 | -26.57769 | 128.75113 | 45094 ft | 546 kts | 53° |
| 2026-04-28 18:50 | -26.53705 | 128.82278 | 45093 ft | 546 kts | 53° |
| 2026-04-28 18:50 | -26.49626 | 128.89454 | 45091 ft | 547 kts | 53° |
| 2026-04-28 18:51 | -26.45569 | 128.96582 | 45100 ft | 547 kts | 53° |
| 2026-04-28 18:51 | -26.41477 | 129.03761 | 45101 ft | 548 kts | 53° |
| 2026-04-28 18:52 | -26.37750 | 129.11171 | 45108 ft | 542 kts | 62° |
| 2026-04-28 18:52 | -26.34675 | 129.18738 | 45104 ft | 532 kts | 62° |
| 2026-04-28 18:53 | -26.31444 | 129.26199 | 45109 ft | 537 kts | 61° |
| 2026-04-28 18:53 | -26.28305 | 129.33734 | 45075 ft | 536 kts | 62° |
| 2026-04-28 18:54 | -26.26722 | 129.37477 | 44251 ft | 532 kts | 61° |
| 2026-04-28 18:54 | -26.25134 | 129.41156 | 43622 ft | 522 kts | 61° |
| 2026-04-28 18:54 | -26.23593 | 129.44775 | 42981 ft | 512 kts | 61° |
| 2026-04-28 18:54 | -26.22096 | 129.48338 | 42340 ft | 503 kts | 61° |
| 2026-04-28 18:55 | -26.20613 | 129.51840 | 41721 ft | 496 kts | 60° |
| 2026-04-28 18:55 | -26.19631 | 129.54133 | 41303 ft | 493 kts | 60° |
| 2026-04-28 18:55 | -26.17654 | 129.58749 | 40452 ft | 494 kts | 60° |
| 2026-04-28 18:55 | -26.16181 | 129.62213 | 39804 ft | 498 kts | 60° |
| 2026-04-28 18:56 | -26.14690 | 129.65719 | 39126 ft | 506 kts | 60° |
| 2026-04-28 18:56 | -26.13160 | 129.69293 | 38356 ft | 515 kts | 60° |
| 2026-04-28 18:56 | -26.11618 | 129.72898 | 37672 ft | 517 kts | 60° |
| 2026-04-28 18:56 | -26.10080 | 129.76506 | 36999 ft | 517 kts | 60° |
| 2026-04-28 18:57 | -26.08535 | 129.80119 | 36315 ft | 516 kts | 60° |
| 2026-04-28 18:57 | -26.06992 | 129.83716 | 35639 ft | 515 kts | 60° |
| 2026-04-28 18:57 | -26.05446 | 129.87317 | 34965 ft | 514 kts | 60° |
| 2026-04-28 18:57 | -26.03907 | 129.90900 | 34295 ft | 512 kts | 60° |
| 2026-04-28 18:58 | -26.02117 | 129.94262 | 33829 ft | 499 kts | 51° |
| 2026-04-28 18:58 | -25.99902 | 129.97210 | 33162 ft | 496 kts | 41° |
| 2026-04-28 18:58 | -25.97304 | 129.99725 | 32507 ft | 494 kts | 32° |
| 2026-04-28 18:58 | -25.94400 | 130.01742 | 31855 ft | 491 kts | 22° |
| 2026-04-28 18:59 | -25.91273 | 130.03219 | 31209 ft | 486 kts | 14° |
| 2026-04-28 18:59 | -25.88089 | 130.04377 | 30590 ft | 488 kts | 13° |
| 2026-04-28 18:59 | -25.84862 | 130.05557 | 29898 ft | 487 kts | 13° |
| 2026-04-28 18:59 | -25.81663 | 130.06747 | 29265 ft | 480 kts | 14° |
| 2026-04-28 19:00 | -25.78513 | 130.07909 | 28643 ft | 474 kts | 13° |
| 2026-04-28 19:00 | -25.75398 | 130.09042 | 28045 ft | 469 kts | 13° |
| 2026-04-28 19:00 | -25.72294 | 130.10173 | 27436 ft | 467 kts | 14° |
| 2026-04-28 19:00 | -25.69221 | 130.11304 | 26829 ft | 463 kts | 14° |
| 2026-04-28 19:01 | -25.66218 | 130.12409 | 26239 ft | 458 kts | 14° |
| 2026-04-28 19:01 | -25.64185 | 130.13152 | 25837 ft | 454 kts | 14° |
| 2026-04-28 19:01 | -25.60379 | 130.14539 | 25090 ft | 449 kts | 14° |
| 2026-04-28 19:01 | -25.57427 | 130.15619 | 24512 ft | 445 kts | 15° |
| 2026-04-28 19:02 | -25.54494 | 130.16693 | 23930 ft | 440 kts | 15° |
| 2026-04-28 19:02 | -25.51940 | 130.17712 | 23336 ft | 438 kts | 20° |
| 2026-04-28 19:02 | -25.50198 | 130.18858 | 22929 ft | 439 kts | 33° |
| 2026-04-28 19:02 | -25.48000 | 130.21197 | 22386 ft | 440 kts | 49° |
| 2026-04-28 19:03 | -25.46137 | 130.23874 | 21868 ft | 438 kts | 51° |
| 2026-04-28 19:03 | -25.44313 | 130.26560 | 21285 ft | 434 kts | 51° |
| 2026-04-28 19:03 | -25.42490 | 130.29198 | 20722 ft | 429 kts | 51° |
| 2026-04-28 19:03 | -25.40667 | 130.31798 | 20156 ft | 425 kts | 50° |
| 2026-04-28 19:04 | -25.38866 | 130.34382 | 19598 ft | 421 kts | 51° |
| 2026-04-28 19:04 | -25.37099 | 130.36941 | 19051 ft | 417 kts | 51° |
| 2026-04-28 19:04 | -25.35345 | 130.39475 | 18507 ft | 414 kts | 51° |
| 2026-04-28 19:04 | -25.33598 | 130.41980 | 17931 ft | 408 kts | 51° |
| 2026-04-28 19:05 | -25.31873 | 130.44454 | 17405 ft | 404 kts | 51° |
| 2026-04-28 19:05 | -25.30171 | 130.46903 | 16877 ft | 400 kts | 51° |
| 2026-04-28 19:05 | -25.28484 | 130.49329 | 16358 ft | 396 kts | 52° |
| 2026-04-28 19:05 | -25.26817 | 130.51720 | 15844 ft | 391 kts | 52° |
| 2026-04-28 19:06 | -25.25157 | 130.54099 | 15330 ft | 388 kts | 52° |
| 2026-04-28 19:06 | -25.23520 | 130.56447 | 14826 ft | 384 kts | 52° |
| 2026-04-28 19:06 | -25.21896 | 130.58777 | 14322 ft | 382 kts | 52° |
| 2026-04-28 19:06 | -25.20279 | 130.61093 | 13807 ft | 379 kts | 53° |
| 2026-04-28 19:07 | -25.18745 | 130.63421 | 13239 ft | 372 kts | 60° |
| 2026-04-28 19:07 | -25.17941 | 130.66088 | 12271 ft | 363 kts | 83° |
| 2026-04-28 19:07 | -25.18190 | 130.68776 | 11680 ft | 345 kts | 104° |
| 2026-04-28 19:07 | -25.18906 | 130.71218 | 11281 ft | 324 kts | 110° |
| 2026-04-28 19:08 | -25.19654 | 130.73491 | 10863 ft | 307 kts | 109° |
| 2026-04-28 19:08 | -25.20260 | 130.75690 | 10457 ft | 293 kts | 105° |
| 2026-04-28 19:08 | -25.20801 | 130.77816 | 10059 ft | 282 kts | 109° |
| 2026-04-28 19:08 | -25.21698 | 130.79723 | 9659 ft | 278 kts | 121° |
| 2026-04-28 19:09 | -25.22766 | 130.81500 | 9333 ft | 278 kts | 123° |
| 2026-04-28 19:09 | -25.23860 | 130.83266 | 8985 ft | 280 kts | 123° |
| 2026-04-28 19:09 | -25.24949 | 130.85016 | 8652 ft | 280 kts | 123° |
| 2026-04-28 19:09 | -25.26048 | 130.86776 | 8336 ft | 279 kts | 123° |
| 2026-04-28 19:10 | -25.27151 | 130.88537 | 8019 ft | 277 kts | 123° |
| 2026-04-28 19:10 | -25.28251 | 130.90286 | 7758 ft | 275 kts | 123° |
| 2026-04-28 19:10 | -25.29330 | 130.92001 | 7588 ft | 271 kts | 123° |
| 2026-04-28 19:10 | -25.30460 | 130.93669 | 7406 ft | 272 kts | 129° |
| 2026-04-28 19:11 | -25.31767 | 130.95191 | 7245 ft | 273 kts | 133° |
| 2026-04-28 19:11 | -25.33120 | 130.96683 | 6922 ft | 274 kts | 134° |
| 2026-04-28 19:11 | -25.34460 | 130.98148 | 6573 ft | 267 kts | 134° |
| 2026-04-28 19:11 | -25.35773 | 130.99572 | 6190 ft | 262 kts | 133° |
| 2026-04-28 19:12 | -25.37072 | 131.00963 | 5814 ft | 258 kts | 133° |
| 2026-04-28 19:12 | -25.38289 | 131.02403 | 5364 ft | 254 kts | 120° |
| 2026-04-28 19:12 | -25.38689 | 131.04230 | 4986 ft | 241 kts | 83° |
| 2026-04-28 19:12 | -25.38214 | 131.05879 | 5064 ft | 220 kts | 64° |
| 2026-04-28 19:13 | -25.37322 | 131.07256 | 5171 ft | 227 kts | 46° |
| 2026-04-28 19:13 | -25.36083 | 131.08297 | 5256 ft | 222 kts | 35° |
| 2026-04-28 19:13 | -25.34795 | 131.09259 | 5264 ft | 226 kts | 37° |
| 2026-04-28 19:13 | -25.33539 | 131.10319 | 5246 ft | 225 kts | 40° |
| 2026-04-28 19:14 | -25.32325 | 131.11358 | 5019 ft | 217 kts | 36° |
| 2026-04-28 19:14 | -25.30903 | 131.11852 | 4690 ft | 216 kts | 7° |
| 2026-04-28 19:14 | -25.29432 | 131.11573 | 4433 ft | 216 kts | 342° |
| 2026-04-28 19:14 | -25.28227 | 131.10586 | 4196 ft | 218 kts | 317° |
| 2026-04-28 19:15 | -25.27283 | 131.09307 | 3984 ft | 210 kts | 314° |
| 2026-04-28 19:15 | -25.26399 | 131.08113 | 3762 ft | 197 kts | 315° |
| 2026-04-28 19:15 | -25.25545 | 131.06981 | 3510 ft | 188 kts | 317° |
| 2026-04-28 19:15 | -25.24995 | 131.06250 | 3360 ft | 184 kts | 317° |
| 2026-04-28 19:16 | -25.23939 | 131.04839 | 3036 ft | 166 kts | 317° |
| 2026-04-28 19:16 | -25.23257 | 131.03922 | 2815 ft | 145 kts | 317° |
| 2026-04-28 19:16 | -25.22633 | 131.03097 | 2625 ft | 136 kts | 315° |
| 2026-04-28 19:16 | -25.22032 | 131.02300 | 2466 ft | 135 kts | 314° |
| 2026-04-28 19:17 | -25.21481 | 131.01569 | 2310 ft | 139 kts | 312° |
| 2026-04-28 19:17 | -25.20859 | 131.00738 | 2097 ft | 143 kts | 311° |
| 2026-04-28 19:17 | -25.20244 | 130.99900 | 1897 ft | 137 kts | 312° |
| 2026-04-28 19:17 | -25.19641 | 130.99099 | 1739 ft | 135 kts | 312° |
| 2026-04-28 19:18 | -25.19071 | 130.98351 | 1637 ft | 123 kts | 312° |
| 2026-04-28 19:18 | -25.18600 | 130.97725 | 1631 ft | 77 kts | 309° |
| 2026-04-28 19:18 | -25.18399 | 130.97454 | 1629 ft | 19 kts | 308° |
| 2026-04-28 19:18 | -25.18318 | 130.97346 | 1630 ft | 14 kts | 307° |
| 2026-04-28 19:19 | -25.18285 | 130.97290 | 1627 ft | 3 kts | 355° |
| 2026-04-28 19:19 | -25.18293 | 130.97321 | 1627 ft | 10 kts | 130° |
| 2026-04-28 19:19 | -25.18348 | 130.97391 | 1628 ft | 13 kts | 130° |
| 2026-04-28 19:19 | -25.18401 | 130.97459 | 1629 ft | 11 kts | 130° |
| 2026-04-28 19:20 | -25.18455 | 130.97509 | 1630 ft | 9 kts | 175° |
| 2026-04-28 19:20 | -25.18510 | 130.97473 | 1629 ft | 10 kts | 219° |
| 2026-04-28 19:20 | -25.18564 | 130.97430 | 1628 ft | 9 kts | 198° |
| 2026-04-28 19:20 | -25.18621 | 130.97468 | 1628 ft | 13 kts | 129° |
| 2026-04-28 19:21 | -25.18687 | 130.97556 | 1630 ft | 16 kts | 129° |
| 2026-04-28 19:21 | -25.18755 | 130.97646 | 1630 ft | 14 kts | 129° |
| 2026-04-28 19:21 | -25.18818 | 130.97730 | 1630 ft | 14 kts | 129° |
| 2026-04-28 19:21 | -25.18884 | 130.97775 | 1631 ft | 11 kts | 205° |
| 2026-04-28 19:22 | -25.18948 | 130.97719 | 1631 ft | 12 kts | 222° |
| 2026-04-28 19:22 | -25.18950 | 130.97669 | 1631 ft | 10 kts | 302° |
| 2026-04-28 19:22 | -25.18897 | 130.97596 | 1630 ft | 9 kts | 300° |
| 2026-04-28 19:22 | -25.18920 | 130.97562 | 1630 ft | 4 kts | 195° |
| 2026-04-28 19:23 | -25.18933 | 130.97571 | 1631 ft | 1 kts | 132° |
| 2026-04-28 19:23 | -25.18938 | 130.97577 | 1631 ft | 1 kts | 130° |
| 2026-04-28 19:23 | -25.18939 | 130.97578 | 1631 ft | 0 kts | 131° |